Cairns, Queensland

8:00 AM AEST on August 26, 2016 (GMT +1000)
Cairns International | | Change Station

Elev 10 ft 16.87 °S, 145.75 °E | Updated 30 minutes ago

Clear
Clear
75 °F
Feels Like 75 °F
N
1
Wind Variable Wind from South

Today
High -- | Low -- °F
--% Chance of Precip.
Yesterday
High -- | Low -- °F
Precip. -- in
Pressure 29.95 in
Visibility -9999.0 miles
Clouds
Dew Point 68 °F
Humidity 78%
Rainfall 0.00 in
Snow Depth Not available.
6:28 AM 6:09 PM
Last Quarter, 41% visible
METAR YBCS 252130Z 17001KT CAVOK 24/20 Q1014 NOSIG
Pressure 29.95 in
Visibility -9999.0 miles
Clouds
Dew Point 68 °F
Humidity 78%
Rainfall 0.00 in
Snow Depth Not available.
6:28 AM 6:09 PM
Last Quarter, 41% visible
METAR YBCS 252130Z 17001KT CAVOK 24/20 Q1014 NOSIG

10-Day Weather Forecast

Almanac

Astronomy

Aug. 26, 2016 Rise Set
Actual Time
Civil Twilight
Nautical Twilight
Astronomical Twilight
Moon
Length of Visible Light
Length of Day
Tomorrow will be .
, % of the Moon is Illuminated

Today's Extremes

Country Highs Country Lows

Community

WunderPhotos

Upload Photos

1,934,947 photos uploaded!

WunderBlog® & News

Nearby

Air Quality

  Air Quality AQ Index Pollutant
Not available.

Snow Depth

Station Depth Elevation

Earthquake Activity

City Distance Mag. Time & Date
Minimum magnitude displayed is 2.5.

Coastal Water Temperatures

Place Temperature

Stations

Nearby Weather Stations

Station Location Temp. Windchill Dew Point Humidity Wind Precip. Elev Updated Type